Rechercher aéroport 
image banner adimage banner adimage banner ad
image banner ad

CL26 - Omninet West Valley Lp

Situé à Chatsworth, United States

ICAO - CL26, IATA -

Données fournies par Airmate  

Information générale

Coordonnées: N34°14'19" W118°33'57"
Élévation : 1018 feet MSL.
Variation magnétique : 14° East
Voir autres Aéroports à California

Données opérationnelles

Special qualification required
Heure actuelle UTC:
Heure actuelle locale:
Météo à : KVNY - Van Nuys ( 8 km )
METAR: KVNY 251251Z 00000KT 10SM CLR 19/16 A2996 RMK AO2 SLP136 T01940161
TAF: KVNY 251158Z 2512/2612 VRB03KT P6SM BKN150 FM251900 14010KT P6SM BKN120 FM260400 14006KT P6SM BKN120 FM260900 VRB03KT P6SM VCSH OVC100
Voir NOTAMs / SUP AIP / TFR affectant cet aéroport [VIEW]
Fréquences de communication: [VIEW]

Pistes:

Coordonnées de l'aéroport

Adresse: Chatsworth United States

Vue satellite de CL26